sensor_id;sensor_type;location;lat;lon;timestamp;temperature;humidity
37786;DHT22;23625;48.784;9.336;2022-07-23T00:01:24;24.60;87.00
37786;DHT22;23625;48.784;9.336;2022-07-23T00:03:50;24.60;87.60
37786;DHT22;23625;48.784;9.336;2022-07-23T00:06:17;24.50;88.40
37786;DHT22;23625;48.784;9.336;2022-07-23T00:08:42;24.50;89.60
37786;DHT22;23625;48.784;9.336;2022-07-23T00:11:08;24.50;89.90
37786;DHT22;23625;48.784;9.336;2022-07-23T00:13:34;24.50;89.80
37786;DHT22;23625;48.784;9.336;2022-07-23T00:15:59;24.50;86.90
37786;DHT22;23625;48.784;9.336;2022-07-23T00:18:25;24.50;86.70
37786;DHT22;23625;48.784;9.336;2022-07-23T00:20:51;24.50;86.80
37786;DHT22;23625;48.784;9.336;2022-07-23T00:23:16;24.50;87.90
37786;DHT22;23625;48.784;9.336;2022-07-23T00:25:42;24.50;86.00
37786;DHT22;23625;48.784;9.336;2022-07-23T00:28:08;24.50;84.40
37786;DHT22;23625;48.784;9.336;2022-07-23T00:30:33;24.50;79.20
37786;DHT22;23625;48.784;9.336;2022-07-23T00:33:02;24.60;78.30
37786;DHT22;23625;48.784;9.336;2022-07-23T00:35:31;24.60;77.20
37786;DHT22;23625;48.784;9.336;2022-07-23T00:37:57;24.60;76.30
37786;DHT22;23625;48.784;9.336;2022-07-23T00:40:23;24.60;74.00
37786;DHT22;23625;48.784;9.336;2022-07-23T00:42:51;24.60;73.00
37786;DHT22;23625;48.784;9.336;2022-07-23T00:45:17;24.70;70.80
37786;DHT22;23625;48.784;9.336;2022-07-23T00:47:43;24.80;70.20
37786;DHT22;23625;48.784;9.336;2022-07-23T00:50:09;24.80;71.90
37786;DHT22;23625;48.784;9.336;2022-07-23T00:52:36;24.70;74.40
37786;DHT22;23625;48.784;9.336;2022-07-23T00:55:03;24.70;75.20
37786;DHT22;23625;48.784;9.336;2022-07-23T00:57:29;24.70;76.00
37786;DHT22;23625;48.784;9.336;2022-07-23T00:59:55;24.60;75.40
37786;DHT22;23625;48.784;9.336;2022-07-23T01:02:21;24.50;77.60
37786;DHT22;23625;48.784;9.336;2022-07-23T01:04:47;24.50;76.70
37786;DHT22;23625;48.784;9.336;2022-07-23T01:07:13;24.40;77.50
37786;DHT22;23625;48.784;9.336;2022-07-23T01:09:38;24.30;77.90
37786;DHT22;23625;48.784;9.336;2022-07-23T01:12:04;24.30;79.40
37786;DHT22;23625;48.784;9.336;2022-07-23T01:14:31;24.10;81.90
37786;DHT22;23625;48.784;9.336;2022-07-23T01:16:57;24.10;81.30
37786;DHT22;23625;48.784;9.336;2022-07-23T01:19:22;24.10;81.40
37786;DHT22;23625;48.784;9.336;2022-07-23T01:21:50;24.00;81.90
37786;DHT22;23625;48.784;9.336;2022-07-23T01:24:17;24.00;82.00
37786;DHT22;23625;48.784;9.336;2022-07-23T01:26:46;24.00;82.70
37786;DHT22;23625;48.784;9.336;2022-07-23T01:29:12;24.00;82.60
37786;DHT22;23625;48.784;9.336;2022-07-23T01:31:38;23.90;84.50
37786;DHT22;23625;48.784;9.336;2022-07-23T01:34:03;23.90;84.10
37786;DHT22;23625;48.784;9.336;2022-07-23T01:36:30;23.80;84.50
37786;DHT22;23625;48.784;9.336;2022-07-23T01:38:56;23.80;84.50
37786;DHT22;23625;48.784;9.336;2022-07-23T01:41:21;23.80;84.90
37786;DHT22;23625;48.784;9.336;2022-07-23T01:43:47;23.70;85.50
37786;DHT22;23625;48.784;9.336;2022-07-23T01:46:13;23.70;86.10
37786;DHT22;23625;48.784;9.336;2022-07-23T01:48:39;23.60;87.70
37786;DHT22;23625;48.784;9.336;2022-07-23T01:51:04;23.60;86.90
37786;DHT22;23625;48.784;9.336;2022-07-23T01:53:30;23.60;87.50
37786;DHT22;23625;48.784;9.336;2022-07-23T01:55:59;23.50;90.00
37786;DHT22;23625;48.784;9.336;2022-07-23T01:58:25;23.50;91.10
37786;DHT22;23625;48.784;9.336;2022-07-23T02:00:51;23.40;91.40
37786;DHT22;23625;48.784;9.336;2022-07-23T02:03:17;23.40;91.20
37786;DHT22;23625;48.784;9.336;2022-07-23T02:05:42;23.40;92.20
37786;DHT22;23625;48.784;9.336;2022-07-23T02:08:08;23.30;92.90
37786;DHT22;23625;48.784;9.336;2022-07-23T02:10:33;23.20;93.80
37786;DHT22;23625;48.784;9.336;2022-07-23T02:12:59;23.20;94.00
37786;DHT22;23625;48.784;9.336;2022-07-23T02:15:25;23.20;94.00
37786;DHT22;23625;48.784;9.336;2022-07-23T02:17:50;23.20;94.10
37786;DHT22;23625;48.784;9.336;2022-07-23T02:20:16;23.10;94.60
37786;DHT22;23625;48.784;9.336;2022-07-23T02:22:42;23.10;94.90
37786;DHT22;23625;48.784;9.336;2022-07-23T02:25:08;23.00;95.20
37786;DHT22;23625;48.784;9.336;2022-07-23T02:27:35;23.00;95.80
37786;DHT22;23625;48.784;9.336;2022-07-23T02:30:01;23.00;96.00
37786;DHT22;23625;48.784;9.336;2022-07-23T02:32:27;23.00;96.60
37786;DHT22;23625;48.784;9.336;2022-07-23T02:34:52;22.90;97.00
37786;DHT22;23625;48.784;9.336;2022-07-23T02:37:18;22.90;97.40
37786;DHT22;23625;48.784;9.336;2022-07-23T02:39:43;22.80;97.80
37786;DHT22;23625;48.784;9.336;2022-07-23T02:42:09;22.80;98.10
37786;DHT22;23625;48.784;9.336;2022-07-23T02:44:35;22.80;98.50
37786;DHT22;23625;48.784;9.336;2022-07-23T02:47:01;22.70;98.80
37786;DHT22;23625;48.784;9.336;2022-07-23T02:49:26;22.60;99.10
37786;DHT22;23625;48.784;9.336;2022-07-23T02:51:52;22.60;99.70
37786;DHT22;23625;48.784;9.336;2022-07-23T02:54:18;22.50;99.90
37786;DHT22;23625;48.784;9.336;2022-07-23T02:56:44;22.50;99.90
37786;DHT22;23625;48.784;9.336;2022-07-23T02:59:09;22.40;99.90
37786;DHT22;23625;48.784;9.336;2022-07-23T03:01:35;22.40;99.90
37786;DHT22;23625;48.784;9.336;2022-07-23T03:04:00;22.30;99.90
37786;DHT22;23625;48.784;9.336;2022-07-23T03:06:26;22.30;99.90
37786;DHT22;23625;48.784;9.336;2022-07-23T03:08:52;22.30;99.90
37786;DHT22;23625;48.784;9.336;2022-07-23T03:11:17;22.30;99.90
37786;DHT22;23625;48.784;9.336;2022-07-23T03:13:43;22.20;99.90
37786;DHT22;23625;48.784;9.336;2022-07-23T03:16:09;22.10;99.90
37786;DHT22;23625;48.784;9.336;2022-07-23T03:18:35;22.00;99.90
37786;DHT22;23625;48.784;9.336;2022-07-23T03:21:00;21.90;99.90
37786;DHT22;23625;48.784;9.336;2022-07-23T03:23:26;21.90;99.90
37786;DHT22;23625;48.784;9.336;2022-07-23T03:25:52;21.80;99.90
37786;DHT22;23625;48.784;9.336;2022-07-23T03:28:18;21.80;99.90
37786;DHT22;23625;48.784;9.336;2022-07-23T03:30:47;21.70;99.90
37786;DHT22;23625;48.784;9.336;2022-07-23T03:33:15;21.70;99.90
37786;DHT22;23625;48.784;9.336;2022-07-23T03:35:45;21.60;99.90
37786;DHT22;23625;48.784;9.336;2022-07-23T03:38:11;21.60;99.90
37786;DHT22;23625;48.784;9.336;2022-07-23T03:40:37;21.50;99.90
37786;DHT22;23625;48.784;9.336;2022-07-23T03:43:02;21.40;99.90
37786;DHT22;23625;48.784;9.336;2022-07-23T03:45:28;21.40;99.90
37786;DHT22;23625;48.784;9.336;2022-07-23T03:47:54;21.40;99.90
37786;DHT22;23625;48.784;9.336;2022-07-23T03:50:20;21.20;99.90
37786;DHT22;23625;48.784;9.336;2022-07-23T03:52:45;21.20;99.90
37786;DHT22;23625;48.784;9.336;2022-07-23T03:55:11;21.10;99.90
37786;DHT22;23625;48.784;9.336;2022-07-23T03:57:37;21.00;99.90
37786;DHT22;23625;48.784;9.336;2022-07-23T04:00:04;21.00;99.90
37786;DHT22;23625;48.784;9.336;2022-07-23T04:02:31;20.90;99.90
37786;DHT22;23625;48.784;9.336;2022-07-23T04:04:57;20.80;99.90
37786;DHT22;23625;48.784;9.336;2022-07-23T04:07:22;20.80;99.90
37786;DHT22;23625;48.784;9.336;2022-07-23T04:09:48;20.70;99.90
37786;DHT22;23625;48.784;9.336;2022-07-23T04:12:14;20.60;99.90
37786;DHT22;23625;48.784;9.336;2022-07-23T04:14:40;20.60;99.90
37786;DHT22;23625;48.784;9.336;2022-07-23T04:17:05;20.60;99.90
37786;DHT22;23625;48.784;9.336;2022-07-23T04:19:31;20.60;99.90
37786;DHT22;23625;48.784;9.336;2022-07-23T04:21:57;20.70;99.90
37786;DHT22;23625;48.784;9.336;2022-07-23T04:24:23;20.60;99.90
37786;DHT22;23625;48.784;9.336;2022-07-23T04:26:48;20.70;99.90
37786;DHT22;23625;48.784;9.336;2022-07-23T04:29:14;20.70;99.90
37786;DHT22;23625;48.784;9.336;2022-07-23T04:31:40;20.80;99.90
37786;DHT22;23625;48.784;9.336;2022-07-23T04:34:05;20.80;99.90
37786;DHT22;23625;48.784;9.336;2022-07-23T04:36:31;20.80;99.90
37786;DHT22;23625;48.784;9.336;2022-07-23T04:38:56;20.80;99.90
37786;DHT22;23625;48.784;9.336;2022-07-23T04:41:22;20.90;99.90
37786;DHT22;23625;48.784;9.336;2022-07-23T04:43:48;20.90;99.90
37786;DHT22;23625;48.784;9.336;2022-07-23T04:46:13;20.90;99.90
37786;DHT22;23625;48.784;9.336;2022-07-23T04:48:39;21.00;99.90
37786;DHT22;23625;48.784;9.336;2022-07-23T04:51:05;21.00;99.90
37786;DHT22;23625;48.784;9.336;2022-07-23T04:53:31;21.30;99.90
37786;DHT22;23625;48.784;9.336;2022-07-23T04:55:57;21.50;99.90
37786;DHT22;23625;48.784;9.336;2022-07-23T04:58:22;21.60;99.90
37786;DHT22;23625;48.784;9.336;2022-07-23T05:00:48;21.60;99.90
37786;DHT22;23625;48.784;9.336;2022-07-23T05:03:14;21.60;99.90
37786;DHT22;23625;48.784;9.336;2022-07-23T05:05:39;21.60;99.90
37786;DHT22;23625;48.784;9.336;2022-07-23T05:08:05;21.60;99.90
37786;DHT22;23625;48.784;9.336;2022-07-23T05:10:31;21.60;99.90
37786;DHT22;23625;48.784;9.336;2022-07-23T05:12:56;21.60;99.90
37786;DHT22;23625;48.784;9.336;2022-07-23T05:15:22;21.70;99.90
37786;DHT22;23625;48.784;9.336;2022-07-23T05:17:48;21.80;99.90
37786;DHT22;23625;48.784;9.336;2022-07-23T05:20:14;21.90;99.90
37786;DHT22;23625;48.784;9.336;2022-07-23T05:22:40;21.90;99.90
37786;DHT22;23625;48.784;9.336;2022-07-23T05:25:06;22.00;99.90
37786;DHT22;23625;48.784;9.336;2022-07-23T05:27:32;22.00;99.90
37786;DHT22;23625;48.784;9.336;2022-07-23T05:29:58;22.10;99.90
37786;DHT22;23625;48.784;9.336;2022-07-23T05:32:23;22.10;99.90
37786;DHT22;23625;48.784;9.336;2022-07-23T05:34:49;22.20;99.90
37786;DHT22;23625;48.784;9.336;2022-07-23T05:37:15;22.20;99.90
37786;DHT22;23625;48.784;9.336;2022-07-23T05:39:41;22.20;99.90
37786;DHT22;23625;48.784;9.336;2022-07-23T05:42:07;22.20;99.90
37786;DHT22;23625;48.784;9.336;2022-07-23T05:44:33;22.20;99.90
37786;DHT22;23625;48.784;9.336;2022-07-23T05:46:58;22.20;99.90
37786;DHT22;23625;48.784;9.336;2022-07-23T05:49:24;22.30;99.90
37786;DHT22;23625;48.784;9.336;2022-07-23T05:51:50;22.30;99.90
37786;DHT22;23625;48.784;9.336;2022-07-23T05:54:15;22.30;99.90
37786;DHT22;23625;48.784;9.336;2022-07-23T05:56:41;22.30;99.90
37786;DHT22;23625;48.784;9.336;2022-07-23T05:59:07;22.30;99.90
37786;DHT22;23625;48.784;9.336;2022-07-23T06:01:33;22.20;99.90
37786;DHT22;23625;48.784;9.336;2022-07-23T06:03:58;22.20;99.90
37786;DHT22;23625;48.784;9.336;2022-07-23T06:06:24;22.30;99.90
37786;DHT22;23625;48.784;9.336;2022-07-23T06:08:49;22.20;99.90
37786;DHT22;23625;48.784;9.336;2022-07-23T06:11:15;22.30;99.90
37786;DHT22;23625;48.784;9.336;2022-07-23T06:13:40;22.30;99.90
37786;DHT22;23625;48.784;9.336;2022-07-23T06:16:06;22.40;99.90
37786;DHT22;23625;48.784;9.336;2022-07-23T06:18:32;22.50;99.90
37786;DHT22;23625;48.784;9.336;2022-07-23T06:20:57;22.50;99.90
37786;DHT22;23625;48.784;9.336;2022-07-23T06:23:23;22.50;99.90
37786;DHT22;23625;48.784;9.336;2022-07-23T06:25:48;22.60;99.90
37786;DHT22;23625;48.784;9.336;2022-07-23T06:28:14;22.70;99.90
37786;DHT22;23625;48.784;9.336;2022-07-23T06:30:40;22.70;99.90
37786;DHT22;23625;48.784;9.336;2022-07-23T06:33:06;22.80;99.90
37786;DHT22;23625;48.784;9.336;2022-07-23T06:35:32;22.90;99.90
37786;DHT22;23625;48.784;9.336;2022-07-23T06:37:59;23.00;99.90
37786;DHT22;23625;48.784;9.336;2022-07-23T06:40:24;23.10;99.90
37786;DHT22;23625;48.784;9.336;2022-07-23T06:42:50;23.20;99.90
37786;DHT22;23625;48.784;9.336;2022-07-23T06:45:16;23.30;99.90
37786;DHT22;23625;48.784;9.336;2022-07-23T06:47:42;23.40;99.90
37786;DHT22;23625;48.784;9.336;2022-07-23T06:50:07;23.60;99.90
37786;DHT22;23625;48.784;9.336;2022-07-23T06:52:33;23.80;99.90
37786;DHT22;23625;48.784;9.336;2022-07-23T06:54:59;23.80;99.90
37786;DHT22;23625;48.784;9.336;2022-07-23T06:57:24;24.00;99.90
37786;DHT22;23625;48.784;9.336;2022-07-23T06:59:51;24.00;99.90
37786;DHT22;23625;48.784;9.336;2022-07-23T07:02:16;24.10;99.90
37786;DHT22;23625;48.784;9.336;2022-07-23T07:04:42;24.10;99.90
37786;DHT22;23625;48.784;9.336;2022-07-23T07:07:08;24.20;99.80
37786;DHT22;23625;48.784;9.336;2022-07-23T07:09:33;24.10;99.10
37786;DHT22;23625;48.784;9.336;2022-07-23T07:11:59;24.10;97.30
37786;DHT22;23625;48.784;9.336;2022-07-23T07:14:24;24.00;98.00
37786;DHT22;23625;48.784;9.336;2022-07-23T07:16:50;23.90;96.60
37786;DHT22;23625;48.784;9.336;2022-07-23T07:19:16;23.70;97.10
37786;DHT22;23625;48.784;9.336;2022-07-23T07:21:41;23.60;99.00
37786;DHT22;23625;48.784;9.336;2022-07-23T07:24:07;23.50;99.40
37786;DHT22;23625;48.784;9.336;2022-07-23T07:26:33;23.50;99.30
37786;DHT22;23625;48.784;9.336;2022-07-23T07:28:59;23.50;99.30
37786;DHT22;23625;48.784;9.336;2022-07-23T07:31:24;23.40;99.90
37786;DHT22;23625;48.784;9.336;2022-07-23T07:33:50;23.40;99.90
37786;DHT22;23625;48.784;9.336;2022-07-23T07:36:15;23.40;99.90
37786;DHT22;23625;48.784;9.336;2022-07-23T07:38:41;23.40;99.90
37786;DHT22;23625;48.784;9.336;2022-07-23T07:41:07;23.30;99.90
37786;DHT22;23625;48.784;9.336;2022-07-23T07:43:33;23.30;99.90
37786;DHT22;23625;48.784;9.336;2022-07-23T07:45:58;23.20;99.90
37786;DHT22;23625;48.784;9.336;2022-07-23T07:48:24;23.00;99.90
37786;DHT22;23625;48.784;9.336;2022-07-23T07:50:50;22.90;99.90
37786;DHT22;23625;48.784;9.336;2022-07-23T07:53:15;22.90;99.90
37786;DHT22;23625;48.784;9.336;2022-07-23T07:55:41;22.90;99.90
37786;DHT22;23625;48.784;9.336;2022-07-23T07:58:06;22.90;99.90
37786;DHT22;23625;48.784;9.336;2022-07-23T08:00:32;22.90;99.90
37786;DHT22;23625;48.784;9.336;2022-07-23T08:02:58;22.90;99.90
37786;DHT22;23625;48.784;9.336;2022-07-23T08:05:28;22.90;99.90
37786;DHT22;23625;48.784;9.336;2022-07-23T08:07:58;23.00;99.90
37786;DHT22;23625;48.784;9.336;2022-07-23T08:10:25;23.00;99.90
37786;DHT22;23625;48.784;9.336;2022-07-23T08:12:53;23.00;99.90
37786;DHT22;23625;48.784;9.336;2022-07-23T08:15:20;23.10;99.90
37786;DHT22;23625;48.784;9.336;2022-07-23T08:17:47;23.30;99.90
37786;DHT22;23625;48.784;9.336;2022-07-23T08:20:14;23.30;99.90
37786;DHT22;23625;48.784;9.336;2022-07-23T08:22:46;23.50;99.90
37786;DHT22;23625;48.784;9.336;2022-07-23T08:25:12;23.70;99.90
37786;DHT22;23625;48.784;9.336;2022-07-23T08:27:38;23.70;99.90
37786;DHT22;23625;48.784;9.336;2022-07-23T08:30:04;23.80;99.90
37786;DHT22;23625;48.784;9.336;2022-07-23T08:32:29;24.00;99.90
37786;DHT22;23625;48.784;9.336;2022-07-23T08:34:55;23.80;99.90
37786;DHT22;23625;48.784;9.336;2022-07-23T08:37:21;23.70;99.90
37786;DHT22;23625;48.784;9.336;2022-07-23T08:39:46;23.50;99.90
37786;DHT22;23625;48.784;9.336;2022-07-23T08:42:13;23.40;99.90
37786;DHT22;23625;48.784;9.336;2022-07-23T08:44:44;23.30;99.90
37786;DHT22;23625;48.784;9.336;2022-07-23T08:47:11;23.30;99.90
37786;DHT22;23625;48.784;9.336;2022-07-23T08:49:38;23.30;99.90
37786;DHT22;23625;48.784;9.336;2022-07-23T08:52:04;23.30;99.90
37786;DHT22;23625;48.784;9.336;2022-07-23T08:54:31;23.30;99.90
37786;DHT22;23625;48.784;9.336;2022-07-23T08:56:57;23.50;99.90
37786;DHT22;23625;48.784;9.336;2022-07-23T08:59:22;23.80;99.90
37786;DHT22;23625;48.784;9.336;2022-07-23T09:01:48;24.00;99.90
37786;DHT22;23625;48.784;9.336;2022-07-23T09:04:13;24.10;99.90
37786;DHT22;23625;48.784;9.336;2022-07-23T09:06:39;24.30;99.90
37786;DHT22;23625;48.784;9.336;2022-07-23T09:09:18;24.60;99.90
37786;DHT22;23625;48.784;9.336;2022-07-23T09:11:48;24.90;99.20
37786;DHT22;23625;48.784;9.336;2022-07-23T09:14:45;25.00;99.00
37786;DHT22;23625;48.784;9.336;2022-07-23T09:17:16;25.40;99.70
37786;DHT22;23625;48.784;9.336;2022-07-23T09:19:42;25.60;97.10
37786;DHT22;23625;48.784;9.336;2022-07-23T09:22:25;25.80;94.40
37786;DHT22;23625;48.784;9.336;2022-07-23T09:25:29;25.90;96.70
37786;DHT22;23625;48.784;9.336;2022-07-23T09:27:59;25.90;94.90
37786;DHT22;23625;48.784;9.336;2022-07-23T09:30:30;25.80;93.90
37786;DHT22;23625;48.784;9.336;2022-07-23T09:35:52;25.90;94.10
37786;DHT22;23625;48.784;9.336;2022-07-23T09:38:20;26.10;94.80
37786;DHT22;23625;48.784;9.336;2022-07-23T09:40:47;26.40;93.70
37786;DHT22;23625;48.784;9.336;2022-07-23T09:43:26;26.60;92.60
37786;DHT22;23625;48.784;9.336;2022-07-23T09:45:53;26.70;90.50
37786;DHT22;23625;48.784;9.336;2022-07-23T09:48:18;27.00;85.00
37786;DHT22;23625;48.784;9.336;2022-07-23T09:50:44;27.30;80.50
37786;DHT22;23625;48.784;9.336;2022-07-23T09:53:23;27.70;77.70
37786;DHT22;23625;48.784;9.336;2022-07-23T09:55:51;28.00;75.80
37786;DHT22;23625;48.784;9.336;2022-07-23T09:58:21;28.30;72.60
37786;DHT22;23625;48.784;9.336;2022-07-23T10:00:48;28.60;67.80
37786;DHT22;23625;48.784;9.336;2022-07-23T10:03:15;28.40;67.70
37786;DHT22;23625;48.784;9.336;2022-07-23T10:05:43;28.30;68.10
37786;DHT22;23625;48.784;9.336;2022-07-23T10:08:11;28.60;67.00
37786;DHT22;23625;48.784;9.336;2022-07-23T10:10:39;28.80;65.70
37786;DHT22;23625;48.784;9.336;2022-07-23T10:13:05;29.00;61.90
37786;DHT22;23625;48.784;9.336;2022-07-23T10:15:50;29.00;62.30
37786;DHT22;23625;48.784;9.336;2022-07-23T10:18:16;29.10;63.30
37786;DHT22;23625;48.784;9.336;2022-07-23T10:20:42;29.10;62.00
37786;DHT22;23625;48.784;9.336;2022-07-23T10:23:16;29.20;61.40
37786;DHT22;23625;48.784;9.336;2022-07-23T10:26:04;29.40;62.60
37786;DHT22;23625;48.784;9.336;2022-07-23T10:34:24;28.40;62.90
37786;DHT22;23625;48.784;9.336;2022-07-23T10:39:28;28.70;63.80
37786;DHT22;23625;48.784;9.336;2022-07-23T10:42:13;28.90;64.40
37786;DHT22;23625;48.784;9.336;2022-07-23T10:44:47;28.90;59.10
37786;DHT22;23625;48.784;9.336;2022-07-23T10:47:25;28.90;61.80
37786;DHT22;23625;48.784;9.336;2022-07-23T10:49:54;29.20;60.30
37786;DHT22;23625;48.784;9.336;2022-07-23T10:52:39;29.30;59.50
37786;DHT22;23625;48.784;9.336;2022-07-23T10:57:50;29.70;56.90
37786;DHT22;23625;48.784;9.336;2022-07-23T11:00:27;29.70;56.60
37786;DHT22;23625;48.784;9.336;2022-07-23T11:02:58;29.70;56.40
37786;DHT22;23625;48.784;9.336;2022-07-23T11:05:26;29.70;56.10
37786;DHT22;23625;48.784;9.336;2022-07-23T11:32:07;29.60;56.00
37786;DHT22;23625;48.784;9.336;2022-07-23T11:34:41;29.50;54.70
37786;DHT22;23625;48.784;9.336;2022-07-23T11:37:26;29.50;55.90
37786;DHT22;23625;48.784;9.336;2022-07-23T11:39:55;29.70;55.20
37786;DHT22;23625;48.784;9.336;2022-07-23T11:42:21;29.60;55.80
37786;DHT22;23625;48.784;9.336;2022-07-23T11:44:48;29.40;56.10
37786;DHT22;23625;48.784;9.336;2022-07-23T11:47:15;29.30;56.60
37786;DHT22;23625;48.784;9.336;2022-07-23T11:50:02;29.00;58.30
37786;DHT22;23625;48.784;9.336;2022-07-23T11:52:29;29.10;60.60
37786;DHT22;23625;48.784;9.336;2022-07-23T11:54:56;29.20;57.00
37786;DHT22;23625;48.784;9.336;2022-07-23T11:57:30;29.10;57.50
37786;DHT22;23625;48.784;9.336;2022-07-23T12:00:05;29.40;56.80
37786;DHT22;23625;48.784;9.336;2022-07-23T12:02:32;29.60;56.90
37786;DHT22;23625;48.784;9.336;2022-07-23T12:04:57;29.80;57.70
37786;DHT22;23625;48.784;9.336;2022-07-23T12:09:53;29.80;55.00
37786;DHT22;23625;48.784;9.336;2022-07-23T12:12:19;29.30;56.40
37786;DHT22;23625;48.784;9.336;2022-07-23T12:14:56;29.30;55.80
37786;DHT22;23625;48.784;9.336;2022-07-23T12:17:31;29.40;56.40
37786;DHT22;23625;48.784;9.336;2022-07-23T12:19:58;29.60;56.30
37786;DHT22;23625;48.784;9.336;2022-07-23T12:22:26;29.70;56.80
37786;DHT22;23625;48.784;9.336;2022-07-23T12:25:04;29.90;55.60
37786;DHT22;23625;48.784;9.336;2022-07-23T12:27:30;30.00;55.00
37786;DHT22;23625;48.784;9.336;2022-07-23T12:29:56;29.50;56.90
37786;DHT22;23625;48.784;9.336;2022-07-23T12:32:27;29.60;58.90
37786;DHT22;23625;48.784;9.336;2022-07-23T12:35:06;29.90;56.70
37786;DHT22;23625;48.784;9.336;2022-07-23T12:37:41;30.20;56.70
37786;DHT22;23625;48.784;9.336;2022-07-23T12:43:03;30.30;56.50
37786;DHT22;23625;48.784;9.336;2022-07-23T12:50:53;30.00;55.10
37786;DHT22;23625;48.784;9.336;2022-07-23T12:53:27;30.00;54.70
37786;DHT22;23625;48.784;9.336;2022-07-23T12:58:49;29.30;56.40
37786;DHT22;23625;48.784;9.336;2022-07-23T13:04:11;29.60;55.80
37786;DHT22;23625;48.784;9.336;2022-07-23T13:06:58;30.10;56.00
37786;DHT22;23625;48.784;9.336;2022-07-23T13:09:25;30.00;53.40
37786;DHT22;23625;48.784;9.336;2022-07-23T13:11:53;29.50;53.30
37786;DHT22;23625;48.784;9.336;2022-07-23T13:14:20;29.60;54.70
37786;DHT22;23625;48.784;9.336;2022-07-23T13:16:46;29.80;54.80
37786;DHT22;23625;48.784;9.336;2022-07-23T13:19:12;30.20;54.40
37786;DHT22;23625;48.784;9.336;2022-07-23T13:21:40;30.20;52.20
37786;DHT22;23625;48.784;9.336;2022-07-23T13:24:06;30.10;53.60
37786;DHT22;23625;48.784;9.336;2022-07-23T13:26:32;29.90;53.40
37786;DHT22;23625;48.784;9.336;2022-07-23T13:28:57;29.60;54.70
37786;DHT22;23625;48.784;9.336;2022-07-23T13:31:23;29.70;55.90
37786;DHT22;23625;48.784;9.336;2022-07-23T13:33:49;30.10;55.60
37786;DHT22;23625;48.784;9.336;2022-07-23T13:36:15;30.40;55.00
37786;DHT22;23625;48.784;9.336;2022-07-23T13:38:41;30.50;52.10
37786;DHT22;23625;48.784;9.336;2022-07-23T13:41:06;30.30;53.40
37786;DHT22;23625;48.784;9.336;2022-07-23T13:43:32;30.30;52.30
37786;DHT22;23625;48.784;9.336;2022-07-23T13:45:58;30.30;54.20
37786;DHT22;23625;48.784;9.336;2022-07-23T13:48:24;30.10;54.70
37786;DHT22;23625;48.784;9.336;2022-07-23T13:50:51;30.00;55.80
37786;DHT22;23625;48.784;9.336;2022-07-23T13:53:19;29.80;56.10
37786;DHT22;23625;48.784;9.336;2022-07-23T13:55:46;29.40;57.60
37786;DHT22;23625;48.784;9.336;2022-07-23T13:58:12;29.20;57.90
37786;DHT22;23625;48.784;9.336;2022-07-23T14:00:42;29.10;58.20
37786;DHT22;23625;48.784;9.336;2022-07-23T14:03:08;29.10;56.80
37786;DHT22;23625;48.784;9.336;2022-07-23T14:05:34;29.30;57.50
37786;DHT22;23625;48.784;9.336;2022-07-23T14:08:01;29.50;54.70
37786;DHT22;23625;48.784;9.336;2022-07-23T14:10:26;29.60;54.90
37786;DHT22;23625;48.784;9.336;2022-07-23T14:12:53;29.90;54.20
37786;DHT22;23625;48.784;9.336;2022-07-23T14:15:22;30.20;55.50
37786;DHT22;23625;48.784;9.336;2022-07-23T14:17:48;30.60;53.50
37786;DHT22;23625;48.784;9.336;2022-07-23T14:20:14;30.70;53.30
37786;DHT22;23625;48.784;9.336;2022-07-23T14:22:40;30.80;53.80
37786;DHT22;23625;48.784;9.336;2022-07-23T14:25:07;31.10;53.60
37786;DHT22;23625;48.784;9.336;2022-07-23T14:27:33;31.20;53.70
37786;DHT22;23625;48.784;9.336;2022-07-23T14:29:59;31.00;54.10
37786;DHT22;23625;48.784;9.336;2022-07-23T14:32:25;31.00;53.90
37786;DHT22;23625;48.784;9.336;2022-07-23T14:34:51;30.70;53.90
37786;DHT22;23625;48.784;9.336;2022-07-23T14:37:17;30.40;53.40
37786;DHT22;23625;48.784;9.336;2022-07-23T14:39:44;30.00;54.70
37786;DHT22;23625;48.784;9.336;2022-07-23T14:42:10;30.00;54.50
37786;DHT22;23625;48.784;9.336;2022-07-23T14:44:36;29.90;54.70
37786;DHT22;23625;48.784;9.336;2022-07-23T14:47:04;29.90;54.40
37786;DHT22;23625;48.784;9.336;2022-07-23T14:49:31;29.90;54.40
37786;DHT22;23625;48.784;9.336;2022-07-23T14:51:57;30.10;54.50
37786;DHT22;23625;48.784;9.336;2022-07-23T14:54:23;30.20;54.10
37786;DHT22;23625;48.784;9.336;2022-07-23T14:56:49;30.00;54.70
37786;DHT22;23625;48.784;9.336;2022-07-23T14:59:14;30.20;53.80
37786;DHT22;23625;48.784;9.336;2022-07-23T15:01:40;30.30;53.20
37786;DHT22;23625;48.784;9.336;2022-07-23T15:04:06;30.40;52.40
37786;DHT22;23625;48.784;9.336;2022-07-23T15:06:33;30.60;52.60
37786;DHT22;23625;48.784;9.336;2022-07-23T15:08:58;30.80;51.90
37786;DHT22;23625;48.784;9.336;2022-07-23T15:11:26;30.80;51.10
37786;DHT22;23625;48.784;9.336;2022-07-23T15:13:52;30.70;51.30
37786;DHT22;23625;48.784;9.336;2022-07-23T15:16:17;30.70;51.90
37786;DHT22;23625;48.784;9.336;2022-07-23T15:18:44;30.60;51.40
37786;DHT22;23625;48.784;9.336;2022-07-23T15:21:09;30.50;51.60
37786;DHT22;23625;48.784;9.336;2022-07-23T15:23:35;30.60;51.60
37786;DHT22;23625;48.784;9.336;2022-07-23T15:26:01;30.60;50.70
37786;DHT22;23625;48.784;9.336;2022-07-23T15:28:27;30.60;50.30
37786;DHT22;23625;48.784;9.336;2022-07-23T15:30:53;30.50;50.60
37786;DHT22;23625;48.784;9.336;2022-07-23T15:33:19;30.50;51.40
37786;DHT22;23625;48.784;9.336;2022-07-23T15:35:45;30.40;51.30
37786;DHT22;23625;48.784;9.336;2022-07-23T15:38:10;30.40;51.50
37786;DHT22;23625;48.784;9.336;2022-07-23T15:40:36;31.00;51.00
37786;DHT22;23625;48.784;9.336;2022-07-23T15:43:02;31.20;50.60
37786;DHT22;23625;48.784;9.336;2022-07-23T15:45:29;31.10;49.80
37786;DHT22;23625;48.784;9.336;2022-07-23T15:47:55;31.00;50.10
37786;DHT22;23625;48.784;9.336;2022-07-23T15:50:21;31.00;51.20
37786;DHT22;23625;48.784;9.336;2022-07-23T15:52:46;31.30;51.60
37786;DHT22;23625;48.784;9.336;2022-07-23T15:55:12;31.20;50.70
37786;DHT22;23625;48.784;9.336;2022-07-23T15:57:38;31.30;50.10
37786;DHT22;23625;48.784;9.336;2022-07-23T16:00:05;31.30;50.50
37786;DHT22;23625;48.784;9.336;2022-07-23T16:02:31;31.50;50.30
37786;DHT22;23625;48.784;9.336;2022-07-23T16:04:56;31.80;49.40
37786;DHT22;23625;48.784;9.336;2022-07-23T16:07:22;31.40;48.70
37786;DHT22;23625;48.784;9.336;2022-07-23T16:09:48;31.20;49.60
37786;DHT22;23625;48.784;9.336;2022-07-23T16:12:14;31.40;50.50
37786;DHT22;23625;48.784;9.336;2022-07-23T16:14:39;31.40;50.30
37786;DHT22;23625;48.784;9.336;2022-07-23T16:17:05;31.50;51.20
37786;DHT22;23625;48.784;9.336;2022-07-23T16:19:31;31.70;48.80
37786;DHT22;23625;48.784;9.336;2022-07-23T16:21:57;32.00;48.10
37786;DHT22;23625;48.784;9.336;2022-07-23T16:24:22;32.20;47.60